EmailTwitter


Surface observations / United Kingdom / EGUB (03658)

Regions: Quebec | Canada | USA | Europe | France | UK | Elsewhere
Station
Display
Info & Location for EGUB (03658) | Help decoding METAR

Weather Conditions observed on 2017/04/30 at 23:50 UTC at BENSON RAF, UK (EGUB)

Sky conditions: partly cloudy.

Temperature: 10.0 Celsius.

Dewpoint: 8.0 Celsius.

Relative Humidity: 87%

Windchill Factor: 8.

Winds: Southeast at 19 km/h or 10 knots.

Mean Sea level Pressure: 99.80 kilopascals.

Horizontal visibility: 3.73 statute miles or 5.97 kilometers.

Height of the Ceiling: 457 metres ( 1500 feet ).

Coded METAR:

EGUB 302350Z AUTO 14010KT 6000 // FEW012/// BKN015/// 10/08 Q0998=